createdAt,value
2022-11-07T00:01:55.564Z,2.83
2022-11-07T00:04:38.938Z,3.00
2022-11-07T00:07:21.998Z,2.38
2022-11-07T00:10:06.362Z,2.33
2022-11-07T00:12:49.426Z,3.80
2022-11-07T00:15:33.810Z,2.90
2022-11-07T00:18:16.767Z,2.80
2022-11-07T00:21:02.311Z,3.42
2022-11-07T00:23:45.324Z,3.85
2022-11-07T00:26:28.515Z,3.13
2022-11-07T00:29:14.475Z,2.58
2022-11-07T00:31:59.706Z,2.70
2022-11-07T00:34:42.656Z,2.42
2022-11-07T00:37:25.606Z,2.05
2022-11-07T00:40:10.567Z,2.10
2022-11-07T00:42:53.466Z,2.90
2022-11-07T00:45:36.698Z,2.13
2022-11-07T00:48:21.647Z,3.08
2022-11-07T00:51:08.889Z,2.30
2022-11-07T00:53:52.650Z,2.15
2022-11-07T00:56:35.768Z,2.13
2022-11-07T00:59:18.982Z,2.15
2022-11-07T01:02:01.940Z,2.30
2022-11-07T01:05:03.864Z,2.65
2022-11-07T01:07:46.798Z,2.22
2022-11-07T01:10:29.795Z,2.65
2022-11-07T01:13:12.951Z,2.90
2022-11-07T01:15:56.175Z,3.10
2022-11-07T01:18:39.761Z,3.25
2022-11-07T01:21:24.280Z,2.60
2022-11-07T01:24:10.975Z,2.72
2022-11-07T01:26:53.936Z,2.75
2022-11-07T01:29:37.383Z,2.72
2022-11-07T01:32:20.548Z,2.47
2022-11-07T01:35:03.434Z,2.42
2022-11-07T01:37:47.777Z,2.35
2022-11-07T01:40:31.143Z,2.92
2022-11-07T01:43:14.416Z,2.75
2022-11-07T01:45:57.512Z,3.05
2022-11-07T01:48:42.148Z,2.58
2022-11-07T01:54:10.516Z,2.15
2022-11-07T01:56:56.008Z,2.45
2022-11-07T01:59:40.595Z,2.70
2022-11-07T02:02:25.213Z,2.53
2022-11-07T02:07:52.042Z,1.77
2022-11-07T02:10:36.802Z,2.33
2022-11-07T02:13:26.669Z,2.58
2022-11-07T02:16:09.925Z,3.10
2022-11-07T02:18:53.079Z,3.67
2022-11-07T02:21:45.316Z,3.67
2022-11-07T02:24:32.742Z,3.42
2022-11-07T02:27:18.723Z,2.78
2022-11-07T02:30:03.911Z,3.55
2022-11-07T02:32:47.638Z,4.20
2022-11-07T02:35:38.476Z,3.10
2022-11-07T02:38:24.942Z,3.03
2022-11-07T02:41:13.161Z,3.38
2022-11-07T02:43:59.694Z,3.42
2022-11-07T02:46:42.852Z,3.60
2022-11-07T02:49:25.859Z,4.10
2022-11-07T02:52:08.931Z,3.90
2022-11-07T02:54:51.880Z,4.57
2022-11-07T02:57:36.380Z,3.35
2022-11-07T03:00:19.378Z,4.18
2022-11-07T03:03:02.320Z,3.60
2022-11-07T03:05:45.344Z,3.13
2022-11-07T03:08:28.277Z,3.80
2022-11-07T03:11:12.768Z,3.42
2022-11-07T03:13:57.303Z,2.95
2022-11-07T03:16:40.266Z,2.97
2022-11-07T03:19:23.373Z,3.47
2022-11-07T03:22:06.371Z,3.63
2022-11-07T03:24:49.307Z,3.80
2022-11-07T03:27:32.291Z,4.45
2022-11-07T03:30:17.216Z,3.70
2022-11-07T03:33:00.133Z,4.53
2022-11-07T03:35:43.602Z,3.95
2022-11-07T03:38:26.691Z,4.20
2022-11-07T03:41:09.972Z,4.03
2022-11-07T03:43:53.938Z,3.60
2022-11-07T03:46:38.264Z,2.97
2022-11-07T03:49:21.195Z,3.03
2022-11-07T03:52:04.356Z,3.38
2022-11-07T03:54:47.236Z,2.83
2022-11-07T03:57:30.335Z,3.40
2022-11-07T04:00:14.971Z,2.83
2022-11-07T04:05:42.330Z,2.33
2022-11-07T04:08:25.935Z,2.78
2022-11-07T04:11:28.880Z,2.75
2022-11-07T04:14:29.109Z,2.75
2022-11-07T04:17:21.471Z,3.33
2022-11-07T04:20:07.174Z,3.42
2022-11-07T04:22:50.087Z,2.90
2022-11-07T04:25:50.266Z,3.50
2022-11-07T04:28:33.236Z,4.72
2022-11-07T04:31:16.182Z,5.18
2022-11-07T04:33:59.149Z,5.32
2022-11-07T04:36:43.448Z,4.95
2022-11-07T04:39:26.456Z,4.30
2022-11-07T04:42:09.506Z,4.10
2022-11-07T04:44:52.451Z,3.50
2022-11-07T04:47:40.174Z,3.55
2022-11-07T04:50:23.497Z,3.30
2022-11-07T04:53:07.859Z,3.33
2022-11-07T04:55:50.769Z,3.85
2022-11-07T04:58:33.778Z,3.30
2022-11-07T05:01:16.735Z,3.10
2022-11-07T05:03:59.870Z,4.00
2022-11-07T05:06:43.287Z,4.22
2022-11-07T05:09:27.886Z,3.53
2022-11-07T05:14:53.677Z,3.40
2022-11-07T05:17:36.594Z,3.55
2022-11-07T05:20:28.615Z,3.35
2022-11-07T05:23:15.882Z,3.70
2022-11-07T05:26:00.751Z,4.10
2022-11-07T05:28:43.738Z,3.53
2022-11-07T05:31:26.707Z,3.72
2022-11-07T05:34:13.587Z,3.40
2022-11-07T05:36:57.537Z,3.55
2022-11-07T05:39:40.642Z,4.13
2022-11-07T05:42:24.953Z,4.07
2022-11-07T05:45:09.664Z,3.78
2022-11-07T05:50:41.721Z,2.63
2022-11-07T05:53:25.539Z,3.92
2022-11-07T05:56:08.609Z,3.10
2022-11-07T05:58:52.922Z,3.20
2022-11-07T06:01:35.979Z,3.25
2022-11-07T06:04:18.999Z,3.00
2022-11-07T06:07:01.874Z,3.20
2022-11-07T06:09:44.819Z,3.60
2022-11-07T06:12:27.775Z,3.90
2022-11-07T06:15:12.528Z,3.47
2022-11-07T06:17:55.427Z,2.95
2022-11-07T06:20:38.481Z,2.88
2022-11-07T06:23:21.435Z,2.63
2022-11-07T06:26:04.401Z,3.08
2022-11-07T06:28:47.383Z,2.55
2022-11-07T06:31:31.991Z,2.90
2022-11-07T06:37:02.885Z,2.50
2022-11-07T06:39:46.548Z,3.33
2022-11-07T06:42:29.491Z,3.55
2022-11-07T06:45:13.124Z,3.55
2022-11-07T06:47:57.838Z,3.65
2022-11-07T06:50:41.005Z,3.85
2022-11-07T06:53:24.181Z,3.20
2022-11-07T06:56:09.347Z,3.40
2022-11-07T06:58:52.381Z,3.70
2022-11-07T07:01:35.501Z,3.38
2022-11-07T07:04:19.928Z,3.70
2022-11-07T07:07:02.939Z,4.20
2022-11-07T07:09:45.862Z,3.88
2022-11-07T07:12:28.821Z,3.80
2022-11-07T07:15:12.064Z,3.72
2022-11-07T07:17:55.044Z,3.92
2022-11-07T07:20:39.421Z,3.63
2022-11-07T07:23:22.608Z,3.30
2022-11-07T07:26:08.188Z,3.00
2022-11-07T07:28:51.143Z,3.20
2022-11-07T07:31:34.084Z,3.30
2022-11-07T07:34:17.063Z,3.25
2022-11-07T07:37:01.398Z,3.30
2022-11-07T07:42:27.477Z,2.70
2022-11-07T07:45:12.359Z,3.03
2022-11-07T07:48:01.094Z,2.92
2022-11-07T07:50:44.124Z,2.90
2022-11-07T07:53:28.532Z,2.63
2022-11-07T07:56:11.482Z,2.72
2022-11-07T07:58:54.465Z,3.03
2022-11-07T08:01:37.683Z,3.53
2022-11-07T08:04:20.739Z,3.08
2022-11-07T08:07:03.684Z,3.28
2022-11-07T08:09:48.127Z,3.22
2022-11-07T08:12:31.063Z,3.40
2022-11-07T08:15:21.597Z,3.00
2022-11-07T08:18:16.224Z,2.93
2022-11-07T08:21:08.533Z,2.88
2022-11-07T08:23:59.178Z,3.15
2022-11-07T08:26:52.706Z,2.93
2022-11-07T08:29:35.633Z,3.20
2022-11-07T08:32:18.602Z,3.60
2022-11-07T08:35:01.608Z,3.42
2022-11-07T08:37:54.823Z,3.72
2022-11-07T08:40:44.262Z,4.72
2022-11-07T08:43:30.260Z,5.88
2022-11-07T08:46:17.884Z,5.68
2022-11-07T08:49:12.424Z,4.40
2022-11-07T08:52:05.149Z,4.03
2022-11-07T08:54:56.324Z,4.18
2022-11-07T08:57:40.911Z,4.32
2022-11-07T09:00:25.414Z,3.63
2022-11-07T09:06:14.990Z,4.03
2022-11-07T09:08:58.060Z,3.33
2022-11-07T09:11:42.272Z,3.10
2022-11-07T09:14:25.280Z,3.10
2022-11-07T09:17:09.804Z,2.50
2022-11-07T09:19:52.749Z,2.33
2022-11-07T09:22:35.670Z,2.47
2022-11-07T09:25:19.344Z,3.40
2022-11-07T09:28:06.046Z,2.78
2022-11-07T09:30:54.360Z,2.55
2022-11-07T09:33:38.690Z,2.13
2022-11-07T09:36:25.134Z,2.40
2022-11-07T09:39:14.175Z,2.75
2022-11-07T09:42:04.935Z,2.60
2022-11-07T09:44:56.587Z,2.38
2022-11-07T09:47:44.825Z,2.83
2022-11-07T09:50:32.822Z,2.40
2022-11-07T09:53:24.515Z,2.83
2022-11-07T09:56:13.555Z,2.28
2022-11-07T09:59:00.295Z,2.42
2022-11-07T10:01:43.504Z,2.17
2022-11-07T10:04:27.347Z,1.80
2022-11-07T10:07:23.368Z,1.83
2022-11-07T10:10:14.800Z,2.15
2022-11-07T10:13:12.316Z,2.15
2022-11-07T10:16:04.875Z,1.90
2022-11-07T10:19:01.338Z,1.70
2022-11-07T10:21:50.342Z,1.80
2022-11-07T10:24:51.932Z,1.90
2022-11-07T10:27:36.886Z,1.85
2022-11-07T10:30:22.116Z,1.77
2022-11-07T10:33:13.673Z,1.88
2022-11-07T10:36:02.436Z,2.45
2022-11-07T10:38:45.500Z,2.28
2022-11-07T10:41:31.897Z,2.40
2022-11-07T10:44:22.316Z,2.05
2022-11-07T10:47:16.696Z,2.60
2022-11-07T10:50:01.565Z,2.72
2022-11-07T10:52:53.712Z,1.73
2022-11-07T10:55:45.318Z,1.40
2022-11-07T10:58:35.215Z,1.60
2022-11-07T11:01:25.425Z,1.60
2022-11-07T11:04:08.629Z,1.60
2022-11-07T11:06:59.876Z,1.23
2022-11-07T11:09:51.495Z,1.30
2022-11-07T11:12:35.601Z,0.90
2022-11-07T11:15:21.868Z,1.17
2022-11-07T11:18:06.967Z,0.85
2022-11-07T11:20:56.717Z,1.00
2022-11-07T11:23:44.900Z,1.70
2022-11-07T11:26:31.755Z,1.10
2022-11-07T11:29:28.951Z,1.10
2022-11-07T11:32:26.768Z,0.70
2022-11-07T11:35:23.719Z,0.80
2022-11-07T11:38:15.167Z,0.93
2022-11-07T11:41:07.698Z,0.90
2022-11-07T11:44:04.518Z,1.00
2022-11-07T11:46:53.971Z,0.90
2022-11-07T11:49:44.388Z,1.00
2022-11-07T11:52:29.614Z,0.90
2022-11-07T11:55:15.577Z,0.98
2022-11-07T11:58:05.876Z,0.88
2022-11-07T12:00:58.038Z,0.90
2022-11-07T12:04:08.077Z,0.90
2022-11-07T12:06:58.968Z,0.90
2022-11-07T12:09:47.267Z,1.00
2022-11-07T12:12:43.215Z,0.68
2022-11-07T12:15:42.582Z,0.90
2022-11-07T12:18:38.304Z,0.60
2022-11-07T12:21:31.226Z,0.80
2022-11-07T12:24:33.754Z,0.88
2022-11-07T12:27:27.263Z,0.80
2022-11-07T12:30:21.144Z,0.93
2022-11-07T12:33:15.063Z,0.90
2022-11-07T12:36:04.006Z,0.70
2022-11-07T12:39:05.996Z,0.77
2022-11-07T12:41:57.546Z,0.55
2022-11-07T12:45:00.748Z,0.77
2022-11-07T12:48:11.840Z,0.90
2022-11-07T12:51:03.327Z,0.77
2022-11-07T12:53:56.283Z,0.70
2022-11-07T12:56:40.356Z,0.65
2022-11-07T12:59:27.614Z,0.80
2022-11-07T13:02:25.264Z,0.60
2022-11-07T13:05:20.664Z,1.90
2022-11-07T13:08:12.221Z,1.30
2022-11-07T13:11:03.638Z,1.08
2022-11-07T13:14:00.149Z,0.80
2022-11-07T13:16:53.145Z,0.70
2022-11-07T13:19:37.909Z,0.80
2022-11-07T13:25:33.641Z,0.85
2022-11-07T13:28:28.510Z,0.80
2022-11-07T13:31:31.945Z,1.40
2022-11-07T13:34:28.167Z,2.45
2022-11-07T13:37:20.923Z,1.40
2022-11-07T13:40:08.393Z,0.88
2022-11-07T13:42:55.730Z,0.70
2022-11-07T13:45:44.196Z,0.88
2022-11-07T13:48:32.450Z,0.80
2022-11-07T13:51:21.731Z,1.00
2022-11-07T13:54:15.589Z,2.28
2022-11-07T13:57:02.695Z,1.55
2022-11-07T13:59:51.082Z,2.70
2022-11-07T14:02:35.868Z,1.17
2022-11-07T14:05:22.971Z,1.00
2022-11-07T14:08:14.924Z,1.00
2022-11-07T14:10:58.547Z,0.88
2022-11-07T14:13:41.984Z,3.47
2022-11-07T14:16:27.802Z,1.73
2022-11-07T14:19:15.611Z,7.60
2022-11-07T14:21:59.052Z,3.13
2022-11-07T14:24:52.560Z,3.15
2022-11-07T14:27:36.518Z,3.53
2022-11-07T14:30:21.940Z,4.20
2022-11-07T14:33:06.996Z,2.95
2022-11-07T14:35:52.334Z,1.60
2022-11-07T14:38:35.291Z,1.10
2022-11-07T14:41:20.927Z,0.63
2022-11-07T14:44:05.570Z,0.70
2022-11-07T14:46:49.763Z,0.63
2022-11-07T14:49:37.929Z,0.80
2022-11-07T14:52:24.362Z,0.63
2022-11-07T14:55:17.861Z,0.70
2022-11-07T14:58:04.281Z,0.70
2022-11-07T15:00:53.644Z,0.60
2022-11-07T15:03:39.440Z,0.70
2022-11-07T15:06:25.137Z,0.95
2022-11-07T15:09:09.923Z,1.25
2022-11-07T15:14:41.710Z,1.60
2022-11-07T15:17:27.625Z,1.67
2022-11-07T15:20:21.681Z,1.55
2022-11-07T15:23:07.204Z,2.45
2022-11-07T15:25:54.314Z,2.42
2022-11-07T15:28:46.733Z,1.30
2022-11-07T15:31:31.676Z,1.00
2022-11-07T15:34:17.961Z,0.70
2022-11-07T15:37:10.378Z,0.80
2022-11-07T15:39:53.549Z,0.80
2022-11-07T15:42:36.512Z,0.50
2022-11-07T15:45:20.089Z,0.73
2022-11-07T15:48:06.705Z,0.65
2022-11-07T15:50:50.768Z,0.70
2022-11-07T15:53:33.740Z,0.65
2022-11-07T15:56:20.452Z,0.80
2022-11-07T15:59:03.440Z,0.80
2022-11-07T16:01:47.444Z,0.70
2022-11-07T16:04:35.298Z,1.38
2022-11-07T16:07:21.618Z,1.58
2022-11-07T16:10:05.871Z,1.33
2022-11-07T16:12:48.987Z,1.70
2022-11-07T16:15:32.068Z,1.65
2022-11-07T16:18:21.734Z,2.88
2022-11-07T16:21:06.785Z,5.55
2022-11-07T16:23:49.860Z,4.10
2022-11-07T16:26:33.111Z,4.75
2022-11-07T16:29:16.589Z,3.47
2022-11-07T16:32:00.016Z,2.85
2022-11-07T16:34:42.991Z,2.53
2022-11-07T16:37:27.281Z,1.90
2022-11-07T16:40:15.733Z,1.83
2022-11-07T16:42:58.649Z,1.45
2022-11-07T16:45:46.462Z,1.77
2022-11-07T16:48:30.716Z,1.85
2022-11-07T16:51:16.598Z,2.60
2022-11-07T16:54:00.969Z,2.35
2022-11-07T16:56:44.041Z,2.13
2022-11-07T16:59:27.166Z,1.77
2022-11-07T17:02:20.834Z,1.80
2022-11-07T17:05:04.812Z,1.45
2022-11-07T17:07:49.386Z,1.13
2022-11-07T17:10:33.795Z,1.15
2022-11-07T17:13:16.856Z,1.10
2022-11-07T17:16:00.502Z,1.20
2022-11-07T17:18:44.146Z,1.10
2022-11-07T17:21:28.635Z,1.20
2022-11-07T17:24:11.688Z,1.33
2022-11-07T17:26:56.011Z,1.42
2022-11-07T17:29:39.325Z,1.05
2022-11-07T17:32:22.361Z,1.20
2022-11-07T17:35:30.553Z,1.00
2022-11-07T17:38:16.407Z,1.15
2022-11-07T17:41:17.141Z,1.05
2022-11-07T17:44:02.242Z,1.10
2022-11-07T17:46:49.114Z,1.10
2022-11-07T17:49:32.069Z,1.10
2022-11-07T17:52:15.021Z,0.80
2022-11-07T17:54:57.951Z,0.75
2022-11-07T17:57:42.468Z,0.93
2022-11-07T18:00:27.978Z,0.85
2022-11-07T18:03:11.354Z,0.80
2022-11-07T18:05:54.340Z,0.90
2022-11-07T18:08:51.815Z,0.73
2022-11-07T18:11:36.244Z,0.82
2022-11-07T18:14:19.154Z,1.00
2022-11-07T18:17:03.496Z,0.70
2022-11-07T18:19:46.555Z,0.88
2022-11-07T18:22:29.543Z,1.08
2022-11-07T18:25:12.739Z,1.10
2022-11-07T18:27:55.710Z,0.88
2022-11-07T18:30:38.674Z,1.40
2022-11-07T18:33:23.075Z,1.02
2022-11-07T18:36:08.855Z,1.42
2022-11-07T18:38:52.032Z,1.63
2022-11-07T18:41:35.330Z,1.90
2022-11-07T18:44:19.100Z,1.77
2022-11-07T18:47:02.161Z,2.00
2022-11-07T18:49:46.542Z,2.40
2022-11-07T18:52:31.428Z,1.90
2022-11-07T18:55:14.402Z,2.00
2022-11-07T18:57:59.269Z,1.90
2022-11-07T19:00:44.977Z,1.88
2022-11-07T19:03:28.021Z,2.00
2022-11-07T19:06:15.373Z,1.88
2022-11-07T19:08:58.920Z,1.92
2022-11-07T19:11:41.973Z,2.10
2022-11-07T19:14:25.224Z,2.20
2022-11-07T19:17:08.239Z,2.10
2022-11-07T19:19:51.232Z,2.45
2022-11-07T19:22:35.568Z,2.05
2022-11-07T19:25:19.014Z,2.38
2022-11-07T19:28:02.007Z,1.88
2022-11-07T19:30:45.352Z,2.08
2022-11-07T19:33:28.293Z,2.13
2022-11-07T19:36:14.842Z,2.40
2022-11-07T19:38:59.292Z,2.08
2022-11-07T19:41:42.479Z,2.67
2022-11-07T19:44:25.570Z,1.95
2022-11-07T19:47:08.513Z,1.90
2022-11-07T19:49:51.526Z,1.95
2022-11-07T19:52:34.533Z,1.55
2022-11-07T19:55:18.895Z,2.20
2022-11-07T19:58:01.811Z,2.55
2022-11-07T20:00:44.764Z,2.20
2022-11-07T20:03:27.875Z,2.20
2022-11-07T20:06:12.207Z,2.05
2022-11-07T20:08:55.226Z,2.13
2022-11-07T20:11:39.875Z,1.92
2022-11-07T20:17:06.411Z,1.65
2022-11-07T20:19:49.383Z,1.80
2022-11-07T20:22:32.392Z,1.67
2022-11-07T20:25:15.766Z,1.83
2022-11-07T20:28:00.134Z,1.52
2022-11-07T20:30:43.299Z,1.70
2022-11-07T20:33:26.312Z,1.48
2022-11-07T20:36:12.903Z,1.40
2022-11-07T20:38:56.353Z,1.70
2022-11-07T20:41:41.470Z,1.60
2022-11-07T20:44:28.171Z,1.27
2022-11-07T20:47:12.112Z,1.33
2022-11-07T20:49:55.111Z,1.33
2022-11-07T20:52:38.123Z,1.17
2022-11-07T20:55:21.072Z,1.10
2022-11-07T20:58:04.445Z,1.20
2022-11-07T21:00:48.799Z,1.17
2022-11-07T21:03:32.865Z,1.40
2022-11-07T21:06:16.107Z,1.80
2022-11-07T21:08:59.546Z,1.60
2022-11-07T21:11:42.949Z,1.60
2022-11-07T21:14:26.283Z,1.52
2022-11-07T21:17:10.747Z,2.13
2022-11-07T21:19:53.754Z,1.60
2022-11-07T21:22:36.758Z,1.70
2022-11-07T21:25:19.726Z,2.03
2022-11-07T21:28:02.633Z,1.90
2022-11-07T21:30:46.364Z,1.83
2022-11-07T21:33:31.226Z,2.20
2022-11-07T21:36:17.597Z,2.47
2022-11-07T21:39:02.008Z,2.20
2022-11-07T21:41:45.429Z,2.05
2022-11-07T21:44:28.437Z,1.73
2022-11-07T21:47:11.474Z,2.05
2022-11-07T21:49:55.807Z,2.63
2022-11-07T21:52:38.776Z,2.17
2022-11-07T21:55:21.734Z,2.17
2022-11-07T21:58:04.725Z,2.20
2022-11-07T22:00:47.776Z,2.10
2022-11-07T22:03:51.532Z,1.85
2022-11-07T22:06:36.541Z,2.90
2022-11-07T22:09:22.432Z,1.70
2022-11-07T22:12:05.723Z,2.08
2022-11-07T22:14:49.704Z,1.80
2022-11-07T22:17:32.678Z,1.83
2022-11-07T22:20:15.775Z,2.22
2022-11-07T22:23:00.570Z,2.15
2022-11-07T22:25:43.561Z,2.13
2022-11-07T22:28:26.491Z,2.20
2022-11-07T22:31:12.025Z,2.20
2022-11-07T22:33:55.455Z,2.00
2022-11-07T22:36:38.418Z,1.73
2022-11-07T22:39:22.736Z,1.55
2022-11-07T22:42:05.916Z,1.95
2022-11-07T22:44:48.839Z,2.50
2022-11-07T22:47:31.785Z,2.40
2022-11-07T22:50:14.709Z,2.35
2022-11-07T22:52:57.706Z,2.47
2022-11-07T22:55:42.026Z,2.17
2022-11-07T22:58:25.078Z,2.67
2022-11-07T23:01:14.410Z,2.40
2022-11-07T23:03:58.805Z,2.45
2022-11-07T23:06:42.324Z,2.33
2022-11-07T23:09:25.277Z,2.50
2022-11-07T23:12:09.686Z,2.05
2022-11-07T23:14:55.220Z,2.25
2022-11-07T23:17:39.117Z,2.05
2022-11-07T23:20:35.966Z,2.50
2022-11-07T23:23:19.125Z,2.03
2022-11-07T23:26:02.461Z,2.30
2022-11-07T23:28:47.315Z,2.30
2022-11-07T23:31:30.854Z,2.30
2022-11-07T23:34:14.581Z,2.20
2022-11-07T23:36:57.624Z,2.40
2022-11-07T23:39:41.640Z,2.50
2022-11-07T23:42:24.535Z,2.47
2022-11-07T23:45:29.560Z,2.55
2022-11-07T23:48:31.881Z,2.38
2022-11-07T23:51:15.242Z,2.20
2022-11-07T23:54:15.968Z,2.75
2022-11-07T23:56:58.967Z,2.88
2022-11-07T23:59:59.740Z,2.53
